Time;durP1;ratioP1;P1;durP2;ratioP2;P2;SDS_P1;SDS_P2;PMS_P1;PMS_P2;Temp;Humidity;BMP_temperature;BMP_pressure;BME280_temperature;BME280_humidity;BME280_pressure;Samples;Min_cycle;Max_cycle;Signal;HPM_P1;HPM_P2
2021/12/08 00:01:00;;;;;;;35.50;20.73;;;;;;;1.69;90.06;100472.66;5060284;28;20257;-56
2021/12/08 00:03:30;;;;;;;35.47;20.50;;;;;;;1.58;91.52;100455.09;5060127;28;21303;-56
2021/12/08 00:05:57;;;;;;;32.50;20.97;;;;;;;1.55;90.38;100456.72;5060400;28;20636;-56
2021/12/08 00:08:27;;;;;;;33.77;22.03;;;;;;;1.79;90.07;100459.13;5059811;28;21777;-57
2021/12/08 00:13:02;;;;;;;33.70;20.43;;;;;;;1.88;91.74;100462.88;5057874;28;20880;-56
2021/12/08 00:13:50;;;;;;;33.50;20.67;;;;;;;2.05;89.21;100462.50;5060697;28;20248;-57
2021/12/08 00:16:17;;;;;;;32.53;20.13;;;;;;;1.60;89.60;100465.47;5059042;28;20234;-56
2021/12/08 00:18:47;;;;;;;29.20;20.50;;;;;;;1.78;90.59;100466.03;5058260;28;20334;-56
2021/12/08 00:21:14;;;;;;;30.90;20.53;;;;;;;1.48;90.56;100457.34;5058164;28;20267;-56
2021/12/08 00:23:42;;;;;;;31.10;20.20;;;;;;;1.75;90.68;100454.72;5058043;28;20234;-55
2021/12/08 00:26:08;;;;;;;34.87;19.97;;;;;;;1.90;89.76;100456.06;5059949;28;20765;-57
2021/12/08 00:28:35;;;;;;;32.53;20.53;;;;;;;1.59;90.21;100450.78;5059325;28;20273;-56
2021/12/08 00:31:03;;;;;;;34.90;21.43;;;;;;;1.73;88.52;100441.72;5059199;28;20835;-61
2021/12/08 00:33:31;;;;;;;30.53;19.50;;;;;;;1.85;89.63;100442.09;5060371;28;20419;-55
2021/12/08 00:35:59;;;;;;;28.43;17.90;;;;;;;1.77;89.08;100443.56;5059615;28;21570;-56
2021/12/08 00:38:26;;;;;;;32.83;19.17;;;;;;;1.63;88.63;100450.06;5059729;28;20279;-57
2021/12/08 00:40:54;;;;;;;31.10;19.27;;;;;;;1.53;90.40;100442.84;5059298;28;20253;-56
2021/12/08 00:43:22;;;;;;;32.20;20.00;;;;;;;1.58;90.91;100437.00;5059530;28;20316;-56
2021/12/08 00:45:48;;;;;;;27.90;18.43;;;;;;;1.65;90.39;100430.25;5057206;28;20245;-56
2021/12/08 00:48:15;;;;;;;31.10;19.47;;;;;;;1.67;89.64;100432.06;5059933;28;20321;-55
2021/12/08 00:50:41;;;;;;;34.47;19.13;;;;;;;1.83;89.06;100417.00;5061010;28;20705;-55
2021/12/08 00:53:08;;;;;;;32.57;20.17;;;;;;;1.81;86.72;100408.31;5047623;28;20222;-55
2021/12/08 00:55:35;;;;;;;29.50;19.87;;;;;;;2.05;88.68;100410.72;5053187;28;20243;-54
2021/12/08 00:58:04;;;;;;;34.93;20.27;;;;;;;1.78;88.43;100390.97;5058467;28;20234;-55
2021/12/08 01:00:32;;;;;;;38.83;20.23;;;;;;;1.55;90.45;100394.63;5058251;28;20235;-56
2021/12/08 01:02:59;;;;;;;29.77;20.07;;;;;;;1.37;89.71;100379.41;5064896;28;20247;-57
2021/12/08 01:05:27;;;;;;;29.77;19.73;;;;;;;1.71;90.33;100385.59;5053205;28;20254;-56
2021/12/08 01:07:54;;;;;;;31.33;20.37;;;;;;;1.17;91.14;100392.63;5059923;28;20258;-56
2021/12/08 01:10:23;;;;;;;35.30;20.03;;;;;;;1.37;89.57;100380.31;5050170;28;20263;-56
2021/12/08 01:12:50;;;;;;;35.20;19.67;;;;;;;1.44;89.60;100376.19;5064288;28;20695;-56
2021/12/08 01:15:19;;;;;;;30.57;20.43;;;;;;;1.12;91.50;100364.84;5059038;28;20234;-57
2021/12/08 01:17:46;;;;;;;33.30;20.93;;;;;;;0.88;91.68;100352.94;5052528;28;20254;-57
2021/12/08 01:20:16;;;;;;;32.97;19.70;;;;;;;1.07;90.49;100359.53;5065666;28;20291;-57
2021/12/08 01:22:43;;;;;;;35.13;20.03;;;;;;;1.08;91.35;100365.59;5061865;28;20251;-56
2021/12/08 01:25:09;;;;;;;31.17;18.73;;;;;;;1.08;91.94;100366.47;5053384;28;20258;-56
2021/12/08 01:27:36;;;;;;;34.77;20.53;;;;;;;1.32;91.35;100358.56;5067102;28;20241;-56
2021/12/08 01:30:04;;;;;;;31.43;19.47;;;;;;;1.30;91.15;100352.50;5066765;28;20329;-57
2021/12/08 01:32:32;;;;;;;31.77;19.23;;;;;;;1.41;90.87;100347.66;5060007;28;20260;-59
2021/12/08 01:34:58;;;;;;;34.33;19.83;;;;;;;1.05;92.25;100344.81;5065990;28;20251;-56
2021/12/08 01:37:25;;;;;;;32.23;19.23;;;;;;;1.57;92.29;100341.19;5060693;28;20238;-56
2021/12/08 01:39:51;;;;;;;32.37;19.43;;;;;;;1.19;92.31;100336.66;5065919;28;20757;-55
2021/12/08 01:42:27;;;;;;;30.17;18.83;;;;;;;1.53;89.45;100339.34;5056502;28;20272;-56
2021/12/08 01:47:39;;;;;;;32.90;19.60;;;;;;;1.27;89.76;100329.13;5064395;28;20246;-56
2021/12/08 01:50:07;;;;;;;30.33;19.53;;;;;;;1.15;91.27;100329.63;5059988;28;20256;-56
2021/12/08 01:52:34;;;;;;;27.83;17.80;;;;;;;1.34;92.23;100320.72;5050656;28;20242;-54
2021/12/08 01:55:00;;;;;;;28.83;18.90;;;;;;;1.61;91.12;100330.09;5059207;28;20237;-55
2021/12/08 01:57:27;;;;;;;35.23;20.30;;;;;;;1.21;93.79;100317.72;5065178;28;20288;-56
2021/12/08 01:59:53;;;;;;;31.07;20.70;;;;;;;1.29;89.52;100299.00;5065100;28;20257;-54
2021/12/08 02:02:20;;;;;;;29.97;19.87;;;;;;;1.14;92.13;100299.44;5062455;28;20273;-55
2021/12/08 02:04:47;;;;;;;32.70;19.53;;;;;;;1.03;91.62;100295.66;5056678;28;20408;-57
2021/12/08 02:07:14;;;;;;;30.30;20.30;;;;;;;1.03;90.82;100302.53;5041739;28;20277;-54
2021/12/08 02:09:42;;;;;;;29.57;18.40;;;;;;;1.51;90.71;100289.28;5056796;28;20235;-56
2021/12/08 02:12:09;;;;;;;32.70;19.73;;;;;;;1.77;89.68;100288.28;5060138;22;20238;-54
2021/12/08 02:14:35;;;;;;;28.43;19.00;;;;;;;1.05;90.05;100285.34;5034605;28;20267;-53
2021/12/08 02:17:02;;;;;;;30.37;18.63;;;;;;;1.46;90.65;100283.09;5043400;28;20282;-53
2021/12/08 02:19:28;;;;;;;35.13;20.33;;;;;;;1.05;91.54;100281.06;5045175;28;20778;-54
2021/12/08 02:21:56;;;;;;;28.63;19.43;;;;;;;1.63;90.00;100274.97;5045792;28;20232;-55
2021/12/08 02:24:23;;;;;;;34.07;20.20;;;;;;;1.31;89.94;100266.31;5038311;28;20308;-53
2021/12/08 02:26:51;;;;;;;37.83;19.27;;;;;;;1.23;90.15;100261.75;5034625;28;20251;-54
2021/12/08 02:29:29;;;;;;;37.67;20.70;;;;;;;1.35;91.19;100262.97;5039582;28;20237;-55
2021/12/08 02:32:01;;;;;;;28.47;18.80;;;;;;;1.43;90.44;100260.59;5037155;28;20242;-54
2021/12/08 02:48:11;;;;;;;33.03;20.07;;;;;;;1.10;91.66;100256.22;5036593;28;20273;-54
2021/12/08 02:50:42;;;;;;;27.97;19.47;;;;;;;1.24;91.39;100253.19;5046254;28;20272;-54
2021/12/08 02:53:11;;;;;;;32.83;17.87;;;;;;;1.57;91.13;100258.41;5039871;28;20317;-54
2021/12/08 02:55:41;;;;;;;29.00;19.00;;;;;;;1.52;89.67;100252.25;5039683;28;20254;-55
2021/12/08 02:58:07;;;;;;;35.87;19.73;;;;;;;1.10;88.99;100256.22;5034268;28;20260;-53
2021/12/08 03:00:35;;;;;;;27.13;19.10;;;;;;;1.37;90.31;100255.25;5030894;28;20595;-54
2021/12/08 03:03:04;;;;;;;27.23;17.97;;;;;;;1.28;90.25;100250.72;5035694;28;20236;-56
2021/12/08 03:05:31;;;;;;;28.43;17.50;;;;;;;1.23;88.99;100257.47;5046117;28;20230;-54
2021/12/08 03:07:58;;;;;;;29.57;18.20;;;;;;;1.28;89.13;100248.13;5041240;28;20650;-55
2021/12/08 03:10:28;;;;;;;29.63;19.67;;;;;;;0.91;89.91;100254.81;5044384;28;20285;-55
2021/12/08 03:12:54;;;;;;;29.53;18.93;;;;;;;0.85;91.04;100251.19;5030831;28;20287;-54
2021/12/08 03:15:21;;;;;;;32.70;20.00;;;;;;;0.77;90.56;100240.59;5027503;28;20258;-54
2021/12/08 03:17:47;;;;;;;28.87;18.37;;;;;;;1.00;90.88;100249.03;5032562;28;20252;-54
2021/12/08 03:20:17;;;;;;;23.93;16.57;;;;;;;0.41;92.75;100243.78;5031874;28;20270;-54
2021/12/08 03:22:46;;;;;;;25.97;17.03;;;;;;;1.21;90.85;100242.75;5035586;28;20234;-53
2021/12/08 03:25:16;;;;;;;29.40;17.53;;;;;;;1.40;89.46;100235.56;5034646;28;20240;-54
2021/12/08 03:27:50;;;;;;;29.13;17.33;;;;;;;1.35;88.00;100239.72;5037110;28;20241;-53
2021/12/08 03:30:21;;;;;;;27.80;18.13;;;;;;;1.28;87.49;100240.38;5038112;28;20290;-54
2021/12/08 03:32:54;;;;;;;31.53;18.90;;;;;;;1.04;89.97;100242.25;5032982;28;20238;-53
2021/12/08 03:35:21;;;;;;;27.20;18.07;;;;;;;0.77;90.87;100234.53;5047223;28;20242;-54
2021/12/08 03:37:47;;;;;;;32.07;17.97;;;;;;;1.09;89.52;100248.41;5047003;28;20273;-54
2021/12/08 03:40:16;;;;;;;27.97;18.70;;;;;;;1.20;88.44;100231.53;5040022;28;20304;-55
2021/12/08 03:42:44;;;;;;;27.87;17.40;;;;;;;0.97;91.33;100237.72;5037833;28;20236;-52
2021/12/08 03:45:14;;;;;;;29.60;18.63;;;;;;;1.02;92.08;100233.56;5047047;28;20279;-55
2021/12/08 03:47:43;;;;;;;32.90;19.53;;;;;;;0.94;91.81;100239.38;5046808;28;20767;-54
2021/12/08 03:50:12;;;;;;;25.00;16.80;;;;;;;1.37;89.69;100226.81;5040703;28;20242;-54
2021/12/08 03:52:38;;;;;;;30.07;17.90;;;;;;;1.21;89.15;100228.09;5043105;28;20237;-54
2021/12/08 03:55:06;;;;;;;32.90;18.70;;;;;;;1.12;90.34;100228.72;5038220;28;20235;-55
2021/12/08 03:57:32;;;;;;;33.90;19.13;;;;;;;0.96;89.42;100218.78;5043894;28;20311;-53
2021/12/08 04:00:00;;;;;;;27.83;17.80;;;;;;;1.22;91.19;100213.47;5043339;28;20309;-61
2021/12/08 04:02:27;;;;;;;27.73;18.00;;;;;;;1.33;89.92;100210.31;5039437;28;20258;-55
2021/12/08 04:04:53;;;;;;;24.97;18.00;;;;;;;0.99;89.15;100210.25;5040661;28;20257;-54
2021/12/08 04:07:20;;;;;;;33.70;19.97;;;;;;;1.07;90.04;100216.50;5049291;28;20280;-55
2021/12/08 04:09:49;;;;;;;27.10;17.93;;;;;;;1.12;89.78;100207.16;5037862;28;20247;-54
2021/12/08 04:12:17;;;;;;;29.77;18.53;;;;;;;1.46;88.63;100197.75;5040242;28;20233;-55
2021/12/08 04:14:47;;;;;;;26.77;17.67;;;;;;;1.38;88.06;100205.31;5043333;28;20236;-53
2021/12/08 04:17:18;;;;;;;32.10;20.57;;;;;;;0.99;88.94;100210.25;5034478;28;20235;-58
2021/12/08 04:19:45;;;;;;;30.00;18.83;;;;;;;1.12;89.22;100204.56;5043161;28;20247;-54
2021/12/08 04:22:14;;;;;;;29.50;19.27;;;;;;;0.80;90.60;100203.63;5042266;28;20250;-54
2021/12/08 04:24:43;;;;;;;29.17;18.20;;;;;;;1.16;91.07;100211.59;5060189;28;20231;-53
2021/12/08 04:27:14;;;;;;;29.10;19.10;;;;;;;1.06;89.86;100217.34;5048874;28;20271;-55
2021/12/08 04:29:42;;;;;;;28.77;17.97;;;;;;;1.03;89.00;100206.91;5041221;28;20285;-53
2021/12/08 04:32:13;;;;;;;30.63;18.63;;;;;;;0.99;89.03;100212.81;5043558;28;20266;-54
2021/12/08 04:34:42;;;;;;;29.97;18.97;;;;;;;0.86;92.06;100220.19;5036096;28;20242;-54
2021/12/08 04:37:17;;;;;;;29.77;18.70;;;;;;;1.19;89.18;100206.50;5045379;28;20266;-54
2021/12/08 04:39:52;;;;;;;32.07;19.53;;;;;;;1.14;91.29;100208.06;5045893;28;20330;-54
2021/12/08 04:42:27;;;;;;;33.37;19.23;;;;;;;1.31;90.08;100214.59;5032347;28;20226;-54
2021/12/08 04:45:02;;;;;;;29.20;18.87;;;;;;;1.34;89.70;100214.69;5036040;28;20240;-54
2021/12/08 04:47:35;;;;;;;27.70;18.13;;;;;;;1.21;90.12;100225.50;5044325;28;20234;-54
2021/12/08 04:50:27;;;;;;;30.13;19.70;;;;;;;1.48;88.46;100225.41;5028380;28;20229;-54
2021/12/08 04:53:02;;;;;;;29.63;18.40;;;;;;;1.40;88.56;100217.44;5050641;28;20250;-53
2021/12/08 05:01:16;;;;;;;29.33;17.93;;;;;;;0.87;89.97;100221.06;5034677;28;20991;-54
2021/12/08 05:04:06;;;;;;;28.57;18.07;;;;;;;1.12;89.38;100227.81;5038447;28;20234;-54
2021/12/08 05:06:45;;;;;;;27.37;19.13;;;;;;;1.05;89.26;100231.06;5042073;28;20786;-54
2021/12/08 05:09:15;;;;;;;28.03;19.60;;;;;;;1.09;89.95;100222.56;5044024;28;20238;-55
2021/12/08 05:11:44;;;;;;;31.30;19.03;;;;;;;1.31;89.06;100224.94;5032937;28;20232;-55
2021/12/08 05:14:15;;;;;;;26.27;18.10;;;;;;;1.15;87.54;100233.09;5046177;28;20312;-55
2021/12/08 05:16:43;;;;;;;26.00;17.43;;;;;;;1.35;88.58;100215.56;5040973;28;20250;-55
2021/12/08 05:19:13;;;;;;;29.07;19.77;;;;;;;1.32;87.04;100218.94;5045315;28;20322;-55
2021/12/08 05:21:44;;;;;;;35.90;18.63;;;;;;;1.19;88.74;100222.00;5043843;28;20261;-54
2021/12/08 05:24:15;;;;;;;29.93;18.97;;;;;;;1.39;88.63;100215.69;5049442;28;20235;-53
2021/12/08 05:26:45;;;;;;;25.93;16.67;;;;;;;1.17;87.58;100213.34;5039233;28;20336;-53
2021/12/08 05:29:14;;;;;;;26.00;17.67;;;;;;;1.38;88.90;100211.34;5025950;28;20243;-53
2021/12/08 05:31:40;;;;;;;24.13;17.37;;;;;;;1.07;89.40;100198.41;5038770;28;20231;-53
2021/12/08 05:34:07;;;;;;;23.67;16.07;;;;;;;1.32;88.88;100207.72;5032837;28;20238;-53
2021/12/08 05:36:33;;;;;;;28.93;18.73;;;;;;;1.16;88.68;100206.44;5035671;28;20234;-54
2021/12/08 05:39:03;;;;;;;30.30;18.83;;;;;;;1.42;87.89;100195.06;5043634;28;20250;-54
2021/12/08 05:41:32;;;;;;;30.93;18.53;;;;;;;1.10;88.83;100201.94;5040455;28;20230;-54
2021/12/08 05:43:58;;;;;;;27.37;17.30;;;;;;;0.76;90.12;100194.91;5043214;28;20691;-54
2021/12/08 05:46:27;;;;;;;27.57;17.50;;;;;;;0.73;90.44;100201.69;5049651;28;20238;-55
2021/12/08 05:48:54;;;;;;;27.53;17.77;;;;;;;0.74;89.70;100200.84;5056438;28;20244;-55
2021/12/08 05:51:23;;;;;;;32.20;19.37;;;;;;;0.71;90.09;100192.22;5061413;28;20227;-57
2021/12/08 05:53:51;;;;;;;27.63;18.40;;;;;;;1.15;90.63;100192.59;5064812;28;20228;-56
2021/12/08 05:56:20;;;;;;;26.70;18.70;;;;;;;1.03;89.30;100196.56;5061067;28;20662;-55
2021/12/08 05:58:47;;;;;;;29.40;18.73;;;;;;;0.70;91.46;100197.31;5060821;28;20297;-55
2021/12/08 06:01:20;;;;;;;29.60;17.10;;;;;;;0.82;90.60;100202.84;5068621;28;20231;-54
2021/12/08 06:03:49;;;;;;;26.23;16.83;;;;;;;1.01;89.91;100206.84;5060987;28;20317;-55
2021/12/08 06:06:16;;;;;;;28.63;17.60;;;;;;;0.73;90.61;100199.13;5054888;28;20245;-55
2021/12/08 06:08:43;;;;;;;29.40;18.70;;;;;;;1.06;90.36;100212.16;5063291;28;20655;-54
2021/12/08 06:11:11;;;;;;;24.17;16.00;;;;;;;1.70;87.33;100207.88;5048618;28;20230;-54
2021/12/08 06:13:41;;;;;;;27.13;17.67;;;;;;;0.88;88.35;100200.47;5045429;28;20830;-56
2021/12/08 06:16:10;;;;;;;27.20;17.50;;;;;;;1.18;89.45;100203.03;5032699;28;20960;-54
2021/12/08 06:18:39;;;;;;;31.57;17.83;;;;;;;1.13;89.63;100214.09;5046956;28;20230;-53
2021/12/08 06:21:07;;;;;;;26.90;16.23;;;;;;;0.93;88.72;100222.13;5045089;28;20236;-55
2021/12/08 06:23:35;;;;;;;26.13;17.03;;;;;;;1.00;89.34;100209.41;5040707;28;20245;-54
2021/12/08 06:26:01;;;;;;;31.03;16.00;;;;;;;0.59;90.30;100209.91;5049185;28;20251;-53
2021/12/08 06:28:28;;;;;;;29.47;19.30;;;;;;;0.56;90.04;100209.84;5037756;28;20232;-53
2021/12/08 06:30:55;;;;;;;32.37;19.10;;;;;;;0.61;91.90;100212.56;5043146;28;20251;-55
2021/12/08 06:33:22;;;;;;;31.70;17.13;;;;;;;0.78;90.91;100207.91;5035500;28;20281;-55
2021/12/08 06:35:51;;;;;;;31.70;17.67;;;;;;;0.92;89.38;100199.72;5032271;28;20286;-54
2021/12/08 06:38:19;;;;;;;28.63;17.67;;;;;;;0.49;90.41;100202.69;5048546;28;20236;-54
2021/12/08 06:40:49;;;;;;;29.33;17.80;;;;;;;0.98;88.49;100205.88;5044973;28;20278;-54
2021/12/08 06:43:19;;;;;;;25.63;18.63;;;;;;;1.03;89.00;100212.94;5044112;28;20235;-55
2021/12/08 06:45:49;;;;;;;25.57;17.27;;;;;;;0.92;89.81;100210.06;5044814;28;20296;-55
2021/12/08 06:48:25;;;;;;;29.70;17.43;;;;;;;0.84;90.71;100226.16;5040374;28;20258;-54
2021/12/08 06:50:54;;;;;;;27.03;17.27;;;;;;;0.85;90.12;100231.38;5043827;28;20242;-54
2021/12/08 06:53:22;;;;;;;25.00;17.00;;;;;;;0.45;91.07;100224.97;5042896;28;20231;-54
2021/12/08 06:55:52;;;;;;;25.83;17.83;;;;;;;0.73;91.96;100238.75;5038621;28;20232;-53
2021/12/08 06:58:22;;;;;;;31.90;19.07;;;;;;;0.69;90.24;100239.47;5033767;28;20251;-53
2021/12/08 07:00:59;;;;;;;29.70;18.00;;;;;;;0.61;91.96;100233.22;5027586;28;20236;-54
2021/12/08 07:03:38;;;;;;;30.23;18.13;;;;;;;1.18;89.97;100233.19;5039918;28;20242;-54
2021/12/08 07:06:11;;;;;;;26.93;17.97;;;;;;;1.15;89.63;100233.09;5050497;28;20224;-54
2021/12/08 07:08:44;;;;;;;30.10;17.03;;;;;;;1.21;89.14;100228.09;5040891;28;20256;-56
2021/12/08 07:11:11;;;;;;;32.37;19.13;;;;;;;1.22;88.80;100231.56;5049259;28;20241;-53
2021/12/08 07:13:38;;;;;;;28.93;17.90;;;;;;;1.18;89.09;100230.59;5037728;28;20710;-54
2021/12/08 07:16:08;;;;;;;32.50;19.60;;;;;;;1.07;88.98;100211.31;5046998;28;20231;-54
2021/12/08 07:18:41;;;;;;;29.33;16.80;;;;;;;1.40;88.24;100207.09;5049516;28;20238;-54
2021/12/08 07:21:11;;;;;;;30.80;20.40;;;;;;;1.28;86.12;100214.50;5054115;28;20234;-55
2021/12/08 07:23:40;;;;;;;31.20;18.07;;;;;;;1.18;86.54;100199.56;5052429;28;20921;-55
2021/12/08 07:26:09;;;;;;;29.37;18.03;;;;;;;1.26;88.12;100205.81;5049441;28;20254;-54
2021/12/08 07:28:39;;;;;;;31.17;18.40;;;;;;;1.24;87.74;100207.50;5041361;28;20238;-54
2021/12/08 07:31:10;;;;;;;25.90;16.50;;;;;;;1.69;86.66;100201.84;5048616;28;20231;-56
2021/12/08 07:33:38;;;;;;;30.30;18.70;;;;;;;1.52;87.04;100205.69;5049663;28;20265;-55
2021/12/08 07:36:11;;;;;;;35.97;20.27;;;;;;;1.55;85.10;100203.19;5049130;28;20244;-54
2021/12/08 07:38:38;;;;;;;34.40;18.93;;;;;;;1.76;85.69;100202.88;5054809;28;20776;-54
2021/12/08 07:41:12;;;;;;;33.87;19.27;;;;;;;1.26;85.37;100203.25;5058456;28;20241;-55
2021/12/08 07:43:41;;;;;;;34.67;20.13;;;;;;;1.35;87.82;100206.09;5064674;28;20618;-55
2021/12/08 07:46:12;;;;;;;32.07;19.33;;;;;;;1.17;88.58;100196.13;5062185;28;20236;-55
2021/12/08 07:48:42;;;;;;;38.47;21.00;;;;;;;1.33;87.78;100199.13;5049406;28;20665;-53
2021/12/08 07:51:16;;;;;;;39.70;21.23;;;;;;;1.34;87.52;100199.19;5045105;28;20239;-52
2021/12/08 07:53:43;;;;;;;37.90;20.37;;;;;;;1.49;86.76;100190.06;5053171;28;20230;-53
2021/12/08 07:56:12;;;;;;;30.13;18.73;;;;;;;1.17;87.75;100180.59;5046515;28;20258;-53
2021/12/08 07:58:41;;;;;;;34.57;20.07;;;;;;;1.40;86.86;100177.75;5039096;28;20787;-54
2021/12/08 08:01:11;;;;;;;33.63;18.63;;;;;;;1.45;86.52;100170.16;5040103;28;20266;-53
2021/12/08 08:03:43;;;;;;;38.80;19.57;;;;;;;1.35;86.59;100177.63;5054556;28;20242;-54
2021/12/08 08:06:13;;;;;;;34.13;19.17;;;;;;;1.29;87.77;100177.47;5039257;28;20228;-52
2021/12/08 08:08:39;;;;;;;29.07;17.93;;;;;;;1.27;87.74;100179.16;5039036;28;20716;-54
2021/12/08 08:11:09;;;;;;;36.37;20.23;;;;;;;1.25;85.46;100173.06;5051641;28;20228;-53
2021/12/08 08:13:36;;;;;;;38.00;19.20;;;;;;;1.37;87.06;100178.56;5079932;22;20308;-53
2021/12/08 08:16:05;;;;;;;34.47;21.57;;;;;;;1.25;87.54;100173.06;4994872;28;20241;-57
2021/12/08 08:18:33;;;;;;;38.97;20.87;;;;;;;1.31;87.75;100173.22;4987382;28;20226;-57
2021/12/08 08:21:06;;;;;;;34.80;19.50;;;;;;;1.31;87.24;100183.56;4997461;28;20245;-56
2021/12/08 08:23:32;;;;;;;34.57;20.70;;;;;;;1.12;86.81;100177.03;4996885;28;20251;-55
2021/12/08 08:26:00;;;;;;;35.27;19.37;;;;;;;1.13;88.05;100185.66;4986469;28;20422;-54
2021/12/08 08:28:27;;;;;;;36.43;21.80;;;;;;;1.01;89.93;100177.53;4996292;28;20244;-56
2021/12/08 08:30:58;;;;;;;35.57;20.77;;;;;;;1.09;88.65;100187.28;4975066;28;20258;-56
2021/12/08 08:33:27;;;;;;;32.27;19.33;;;;;;;1.46;87.69;100183.09;4993290;28;20232;-56
2021/12/08 08:35:58;;;;;;;33.70;19.80;;;;;;;1.16;87.24;100184.03;4986583;28;20263;-57
2021/12/08 08:38:29;;;;;;;33.20;19.33;;;;;;;1.41;86.95;100164.88;4986841;28;20237;-54
2021/12/08 08:40:58;;;;;;;37.80;20.90;;;;;;;1.55;85.83;100175.59;4986764;28;20264;-56
2021/12/08 08:43:25;;;;;;;37.10;20.03;;;;;;;1.56;87.37;100173.88;4983576;28;20734;-57
2021/12/08 08:45:54;;;;;;;37.27;19.83;;;;;;;1.26;86.09;100173.91;4986763;28;20264;-56
2021/12/08 08:48:23;;;;;;;36.90;20.20;;;;;;;1.42;87.72;100179.56;4986287;28;20315;-55
2021/12/08 08:50:53;;;;;;;37.53;19.83;;;;;;;1.52;86.66;100174.63;4990165;28;20619;-56
2021/12/08 08:53:22;;;;;;;44.10;20.90;;;;;;;1.87;85.65;100165.19;4990179;28;20263;-56
2021/12/08 08:55:52;;;;;;;36.67;20.07;;;;;;;1.71;86.32;100158.75;4981686;28;20265;-56
2021/12/08 08:58:22;;;;;;;33.77;19.97;;;;;;;1.70;84.46;100162.16;4989822;28;20289;-56
2021/12/08 09:00:52;;;;;;;34.23;21.30;;;;;;;1.63;84.45;100150.78;4991038;28;20236;-56
2021/12/08 09:03:21;;;;;;;41.50;22.07;;;;;;;1.72;85.05;100154.44;4984710;28;20231;-55
2021/12/08 09:05:52;;;;;;;33.97;19.90;;;;;;;1.66;85.02;100150.00;4986686;28;20277;-56
2021/12/08 09:08:22;;;;;;;33.90;18.63;;;;;;;1.55;83.95;100151.44;4992121;28;20240;-56
2021/12/08 09:10:54;;;;;;;40.50;20.80;;;;;;;1.24;86.43;100149.75;4987088;28;20659;-55
2021/12/08 09:13:26;;;;;;;37.57;20.10;;;;;;;1.30;87.33;100149.88;4986519;28;20228;-56
2021/12/08 09:15:56;;;;;;;33.30;20.77;;;;;;;1.74;86.71;100148.47;4985233;28;20295;-50
2021/12/08 09:18:27;;;;;;;36.90;20.97;;;;;;;1.63;84.29;100145.59;4985232;28;20271;-55
2021/12/08 09:21:00;;;;;;;32.37;19.87;;;;;;;1.33;85.30;100156.03;4984928;28;20252;-56
2021/12/08 09:23:31;;;;;;;41.03;20.43;;;;;;;1.41;86.50;100141.59;4985215;28;20237;-57
2021/12/08 09:26:04;;;;;;;35.93;20.73;;;;;;;1.66;84.51;100137.06;4985392;28;20635;-54
2021/12/08 09:28:34;;;;;;;35.20;19.13;;;;;;;1.75;83.63;100139.00;4995166;28;20244;-56
2021/12/08 09:31:06;;;;;;;37.53;20.20;;;;;;;1.71;84.77;100137.16;4993999;28;20304;-55
2021/12/08 09:33:39;;;;;;;31.20;19.67;;;;;;;1.55;84.22;100146.28;4987776;28;20315;-56
2021/12/08 09:36:10;;;;;;;35.37;20.37;;;;;;;1.62;84.65;100137.81;4993915;28;20243;-55
2021/12/08 09:38:39;;;;;;;32.87;20.20;;;;;;;1.92;84.08;100141.16;4982733;28;20280;-57
2021/12/08 09:41:10;;;;;;;39.27;19.10;;;;;;;2.00;84.00;100145.63;4991993;28;20743;-56
2021/12/08 09:43:39;;;;;;;33.73;18.80;;;;;;;1.65;83.25;100148.22;4983648;28;20860;-54
2021/12/08 09:46:09;;;;;;;34.13;20.43;;;;;;;1.54;84.23;100128.97;4983270;28;20324;-55
2021/12/08 09:48:38;;;;;;;37.83;20.80;;;;;;;1.73;83.58;100141.56;4976609;28;20238;-55
2021/12/08 09:51:04;;;;;;;33.97;19.40;;;;;;;1.76;83.14;100135.59;4983646;28;20244;-57
2021/12/08 09:53:33;;;;;;;34.57;21.00;;;;;;;1.69;83.83;100142.31;4985581;28;20233;-56
2021/12/08 09:56:01;;;;;;;35.13;22.00;;;;;;;1.37;84.19;100139.78;4994975;28;20764;-57
2021/12/08 09:58:29;;;;;;;41.00;23.00;;;;;;;1.62;84.90;100137.81;4987723;28;20449;-57
2021/12/08 10:00:59;;;;;;;41.33;22.37;;;;;;;1.65;85.64;100117.19;4983284;28;20638;-57
2021/12/08 10:03:26;;;;;;;36.67;21.33;;;;;;;1.96;82.91;100128.28;4984547;28;20846;-58
2021/12/08 10:05:53;;;;;;;44.73;21.53;;;;;;;1.79;84.23;100141.72;4988239;28;20256;-56
2021/12/08 10:08:19;;;;;;;33.50;19.27;;;;;;;1.85;83.71;100126.31;4984973;28;20322;-58
2021/12/08 10:10:46;;;;;;;34.97;18.93;;;;;;;1.97;82.14;100119.69;4990999;28;20301;-57
2021/12/08 10:13:15;;;;;;;32.70;21.03;;;;;;;1.45;86.45;100103.75;4981092;28;20264;-56
2021/12/08 10:15:43;;;;;;;33.80;20.77;;;;;;;1.70;84.55;100117.31;4982872;28;20236;-57
2021/12/08 10:18:10;;;;;;;40.72;22.10;;;;;;;1.53;84.18;100106.53;4983588;28;20463;-57
2021/12/08 10:20:38;;;;;;;37.93;22.33;;;;;;;1.72;83.85;100103.59;4984222;28;20251;-56
2021/12/08 10:23:17;;;;;;;39.10;22.73;;;;;;;1.69;85.25;100102.63;4981812;28;20235;-54
2021/12/08 10:25:46;;;;;;;39.63;20.40;;;;;;;1.61;84.29;100095.53;4983815;28;20302;-57
2021/12/08 10:28:15;;;;;;;42.70;21.70;;;;;;;1.81;82.55;100096.03;4983721;28;20796;-57
2021/12/08 10:30:47;;;;;;;40.10;21.40;;;;;;;1.80;84.94;100098.59;4995517;28;20252;-56
2021/12/08 10:33:48;;;;;;;36.03;21.63;;;;;;;1.57;84.62;100104.06;4987591;28;20721;-57
2021/12/08 10:36:33;;;;;;;36.47;20.47;;;;;;;1.84;84.11;100090.91;4982582;28;20244;-57
2021/12/08 10:39:03;;;;;;;38.00;22.70;;;;;;;1.59;84.70;100081.69;4990119;28;20248;-57
2021/12/08 10:41:43;;;;;;;39.70;21.83;;;;;;;1.69;85.01;100087.09;4992847;28;20228;-56
2021/12/08 10:44:10;;;;;;;37.80;21.87;;;;;;;1.85;83.40;100084.91;4984135;28;20749;-58
2021/12/08 10:46:38;;;;;;;36.83;20.97;;;;;;;1.78;83.67;100102.84;4993994;28;20327;-56
2021/12/08 10:49:15;;;;;;;32.83;19.43;;;;;;;1.62;84.39;100101.59;4996274;28;20236;-55
2021/12/08 10:54:34;;;;;;;33.33;20.53;;;;;;;2.29;83.28;100100.59;4992659;28;20955;-56
2021/12/08 10:57:02;;;;;;;38.73;22.10;;;;;;;2.11;83.43;100082.06;5000813;28;20256;-57
2021/12/08 10:59:30;;;;;;;38.97;23.50;;;;;;;2.39;82.54;100079.22;4994440;28;20294;-56
2021/12/08 11:01:59;;;;;;;36.50;21.60;;;;;;;2.39;81.46;100071.44;4994230;28;20769;-58
2021/12/08 11:04:31;;;;;;;39.30;24.30;;;;;;;2.19;81.77;100080.50;4987704;28;20460;-57
2021/12/08 11:07:05;;;;;;;38.13;21.57;;;;;;;1.87;81.78;100078.06;4995956;28;20694;-57
2021/12/08 11:09:39;;;;;;;36.13;22.50;;;;;;;2.01;82.38;100082.69;4992835;28;20236;-57
2021/12/08 11:12:06;;;;;;;33.43;20.10;;;;;;;2.20;82.70;100087.41;4991287;28;20621;-57
2021/12/08 11:14:43;;;;;;;37.20;21.37;;;;;;;2.05;82.01;100082.78;4990728;28;20241;-57
2021/12/08 11:17:25;;;;;;;41.07;23.17;;;;;;;1.85;84.30;100091.78;4988775;28;20323;-56
2021/12/08 11:20:14;;;;;;;35.40;21.43;;;;;;;1.65;84.59;100080.94;4980851;28;20246;-56
2021/12/08 11:22:40;;;;;;;38.57;20.63;;;;;;;2.13;84.75;100090.72;4999602;28;20690;-58
2021/12/08 11:25:07;;;;;;;36.40;20.97;;;;;;;2.10;82.73;100090.63;4988070;28;20689;-57
2021/12/08 11:27:34;;;;;;;38.50;21.87;;;;;;;2.47;82.75;100078.50;4993411;28;20315;-54
2021/12/08 11:30:12;;;;;;;33.07;20.67;;;;;;;2.10;82.20;100072.53;4989139;28;20235;-57
2021/12/08 11:32:39;;;;;;;37.87;20.83;;;;;;;2.19;82.98;100070.16;4997614;28;20237;-57
2021/12/08 11:35:06;;;;;;;36.00;20.43;;;;;;;2.20;83.01;100065.84;4993298;28;20251;-56
2021/12/08 11:37:35;;;;;;;37.80;20.47;;;;;;;2.22;83.17;100059.00;4993003;28;20245;-56
2021/12/08 11:40:02;;;;;;;36.90;20.53;;;;;;;2.29;80.77;100055.69;4992205;28;20263;-57
2021/12/08 11:42:31;;;;;;;36.10;21.90;;;;;;;2.11;82.44;100059.63;4992414;28;20232;-56
2021/12/08 11:44:59;;;;;;;41.70;21.60;;;;;;;2.07;81.36;100069.84;4989737;28;20258;-57
2021/12/08 11:47:29;;;;;;;33.30;21.90;;;;;;;1.94;82.73;100067.84;4986582;28;20248;-57
2021/12/08 11:49:59;;;;;;;42.43;23.50;;;;;;;2.05;83.46;100063.78;4990383;28;20241;-57
2021/12/08 11:52:29;;;;;;;36.37;20.40;;;;;;;2.27;81.63;100060.81;4985626;28;20263;-56